createdAt,value
2019-03-17T00:00:31.150Z,8.40
2019-03-17T00:02:59.781Z,8.40
2019-03-17T00:05:28.422Z,8.40
2019-03-17T00:07:57.301Z,8.40
2019-03-17T00:10:25.914Z,8.30
2019-03-17T00:12:54.521Z,8.30
2019-03-17T00:15:23.166Z,8.30
2019-03-17T00:17:52.104Z,8.20
2019-03-17T00:20:20.806Z,8.20
2019-03-17T00:22:54.187Z,8.10
2019-03-17T00:25:22.687Z,8.10
2019-03-17T00:27:51.168Z,8.10
2019-03-17T00:30:30.083Z,8.10
2019-03-17T00:33:01.798Z,8.00
2019-03-17T00:35:32.049Z,8.00
2019-03-17T00:38:00.735Z,8.00
2019-03-17T00:40:29.389Z,8.00
2019-03-17T00:42:57.977Z,8.00
2019-03-17T00:45:45.936Z,7.90
2019-03-17T00:48:17.523Z,8.00
2019-03-17T00:50:48.777Z,7.90
2019-03-17T00:53:16.541Z,7.90
2019-03-17T00:55:55.791Z,7.90
2019-03-17T00:58:24.580Z,7.80
2019-03-17T01:01:07.113Z,7.80
2019-03-17T01:03:23.452Z,7.80
2019-03-17T01:05:52.111Z,7.70
2019-03-17T01:08:22.445Z,7.70
2019-03-17T01:10:51.695Z,7.70
2019-03-17T01:13:23.578Z,7.60
2019-03-17T01:15:53.662Z,7.60
2019-03-17T01:18:23.730Z,7.50
2019-03-17T01:20:52.457Z,7.50
2019-03-17T01:23:23.399Z,7.50
2019-03-17T01:25:55.619Z,7.40
2019-03-17T01:28:26.489Z,7.40
2019-03-17T01:30:55.090Z,7.40
2019-03-17T01:33:26.402Z,7.40
2019-03-17T01:35:58.322Z,7.40
2019-03-17T01:38:26.891Z,7.40
2019-03-17T01:43:43.371Z,7.40
2019-03-17T01:46:11.891Z,7.40
2019-03-17T01:48:40.537Z,7.50
2019-03-17T01:51:09.298Z,7.40
2019-03-17T01:53:37.896Z,7.40
2019-03-17T01:56:10.530Z,7.40
2019-03-17T01:58:39.358Z,7.40
2019-03-17T02:01:08.069Z,7.40
2019-03-17T02:03:41.888Z,7.40
2019-03-17T02:06:10.186Z,7.50
2019-03-17T02:08:38.888Z,7.50
2019-03-17T02:11:07.444Z,7.50
2019-03-17T02:13:39.070Z,7.50
2019-03-17T02:16:07.751Z,7.50
2019-03-17T02:18:36.607Z,7.50
2019-03-17T02:21:05.542Z,7.50
2019-03-17T02:23:34.121Z,6.90
2019-03-17T02:26:02.681Z,6.10
2019-03-17T02:28:31.562Z,6.00
2019-03-17T02:31:00.260Z,6.00
2019-03-17T02:33:28.873Z,6.00
2019-03-17T02:36:03.814Z,6.10
2019-03-17T02:41:21.680Z,6.10
2019-03-17T02:43:50.421Z,6.10
2019-03-17T02:46:20.589Z,6.10
2019-03-17T02:48:53.808Z,6.20
2019-03-17T02:51:22.531Z,6.20
2019-03-17T02:53:51.195Z,6.20
2019-03-17T02:56:19.853Z,6.10
2019-03-17T02:58:48.439Z,6.10
2019-03-17T03:01:20.185Z,6.10
2019-03-17T03:03:48.885Z,6.10
2019-03-17T03:06:19.119Z,6.10
2019-03-17T03:08:47.878Z,6.10
2019-03-17T03:11:16.582Z,6.20
2019-03-17T03:13:45.264Z,6.30
2019-03-17T03:16:13.944Z,6.40
2019-03-17T03:18:42.701Z,6.40
2019-03-17T03:21:11.341Z,6.40
2019-03-17T03:23:41.728Z,6.40
2019-03-17T03:26:10.580Z,6.30
2019-03-17T03:28:39.141Z,6.30
2019-03-17T03:31:07.730Z,6.30
2019-03-17T03:33:41.599Z,6.20
2019-03-17T03:36:11.901Z,6.20
2019-03-17T03:38:40.626Z,6.30
2019-03-17T03:41:10.931Z,6.30
2019-03-17T03:43:39.521Z,6.40
2019-03-17T03:46:08.136Z,6.40
2019-03-17T03:48:38.326Z,6.30
2019-03-17T03:51:06.933Z,6.30
2019-03-17T03:53:35.593Z,6.30
2019-03-17T03:56:06.031Z,6.20
2019-03-17T03:58:34.719Z,6.20
2019-03-17T04:01:03.330Z,6.20
2019-03-17T04:03:32.064Z,6.20
2019-03-17T04:06:02.271Z,6.20
2019-03-17T04:08:36.467Z,6.20
2019-03-17T04:11:06.944Z,6.10
2019-03-17T04:13:37.131Z,6.00
2019-03-17T04:16:14.611Z,6.00
2019-03-17T04:18:44.829Z,6.00
2019-03-17T04:21:13.451Z,6.00
2019-03-17T04:23:42.191Z,6.00
2019-03-17T04:26:12.472Z,5.90
2019-03-17T04:28:41.003Z,5.90
2019-03-17T04:31:09.728Z,5.90
2019-03-17T04:33:38.413Z,5.90
2019-03-17T04:36:07.118Z,5.90
2019-03-17T04:38:35.701Z,5.80
2019-03-17T04:41:04.381Z,5.70
2019-03-17T04:43:53.913Z,5.70
2019-03-17T04:46:22.678Z,5.70
2019-03-17T04:48:57.536Z,5.70
2019-03-17T04:51:26.317Z,5.70
2019-03-17T04:53:54.829Z,5.70
2019-03-17T04:56:23.452Z,5.60
2019-03-17T04:59:11.641Z,5.60
2019-03-17T05:01:41.873Z,5.60
2019-03-17T05:04:13.814Z,5.50
2019-03-17T05:06:52.402Z,5.50
2019-03-17T05:09:15.371Z,5.50
2019-03-17T05:11:44.041Z,5.40
2019-03-17T05:14:32.213Z,5.40
2019-03-17T05:17:03.588Z,5.40
2019-03-17T05:19:35.307Z,5.40
2019-03-17T05:22:06.617Z,5.40
2019-03-17T05:24:35.393Z,5.30
2019-03-17T05:27:05.647Z,5.40
2019-03-17T05:29:35.986Z,5.30
2019-03-17T05:32:06.213Z,5.30
2019-03-17T05:34:34.820Z,5.30
2019-03-17T05:37:07.046Z,5.30
2019-03-17T05:39:39.324Z,5.30
2019-03-17T05:42:12.614Z,5.20
2019-03-17T05:45:00.630Z,5.20
2019-03-17T05:47:29.203Z,5.20
2019-03-17T05:49:59.261Z,5.10
2019-03-17T05:52:29.294Z,5.10
2019-03-17T05:54:58.266Z,5.10
2019-03-17T05:57:29.751Z,5.10
2019-03-17T05:59:58.459Z,5.20
2019-03-17T06:02:30.189Z,5.10
2019-03-17T06:05:00.506Z,5.10
2019-03-17T06:07:30.602Z,5.10
2019-03-17T06:10:00.723Z,5.10
2019-03-17T06:12:29.404Z,5.00
2019-03-17T06:14:57.920Z,5.00
2019-03-17T06:17:26.799Z,5.00
2019-03-17T06:19:55.452Z,5.10
2019-03-17T06:22:30.282Z,5.10
2019-03-17T06:24:58.941Z,5.00
2019-03-17T06:27:27.563Z,5.00
2019-03-17T06:29:56.238Z,5.00
2019-03-17T06:32:25.191Z,5.00
2019-03-17T06:34:53.712Z,5.00
2019-03-17T06:37:30.908Z,5.00
2019-03-17T06:39:52.941Z,5.00
2019-03-17T06:42:24.460Z,5.00
2019-03-17T06:44:53.091Z,5.00
2019-03-17T06:47:21.834Z,5.00
2019-03-17T06:49:52.094Z,5.00
2019-03-17T06:52:22.509Z,5.00
2019-03-17T06:54:51.210Z,5.10
2019-03-17T06:57:19.706Z,5.10
2019-03-17T06:59:48.490Z,5.10
2019-03-17T07:02:17.270Z,5.10
2019-03-17T07:04:49.991Z,5.10
2019-03-17T07:07:18.673Z,5.20
2019-03-17T07:09:49.093Z,5.20
2019-03-17T07:12:17.702Z,5.30
2019-03-17T07:14:46.333Z,5.30
2019-03-17T07:17:19.387Z,5.30
2019-03-17T07:19:49.374Z,5.30
2019-03-17T07:22:17.985Z,5.40
2019-03-17T07:24:48.306Z,5.40
2019-03-17T07:27:21.225Z,5.50
2019-03-17T07:29:49.883Z,5.50
2019-03-17T07:32:18.610Z,5.50
2019-03-17T07:34:47.136Z,5.60
2019-03-17T07:37:15.673Z,5.60
2019-03-17T07:39:44.400Z,5.70
2019-03-17T07:42:15.799Z,5.80
2019-03-17T07:44:44.489Z,5.90
2019-03-17T07:47:13.298Z,5.90
2019-03-17T07:49:43.751Z,5.90
2019-03-17T07:52:14.729Z,5.90
2019-03-17T07:54:43.427Z,5.90
2019-03-17T07:57:13.654Z,6.00
2019-03-17T07:59:45.004Z,6.00
2019-03-17T08:02:16.589Z,6.00
2019-03-17T08:04:46.810Z,6.10
2019-03-17T08:07:19.274Z,6.20
2019-03-17T08:10:06.609Z,6.20
2019-03-17T08:12:35.218Z,6.30
2019-03-17T08:15:08.010Z,6.60
2019-03-17T08:17:36.694Z,6.40
2019-03-17T08:20:26.398Z,6.40
2019-03-17T08:23:00.564Z,6.40
2019-03-17T08:25:32.293Z,6.50
2019-03-17T08:28:01.027Z,6.50
2019-03-17T08:30:29.864Z,6.60
2019-03-17T08:32:58.461Z,6.60
2019-03-17T08:35:27.292Z,6.70
2019-03-17T08:37:56.039Z,6.70
2019-03-17T08:40:24.640Z,6.80
2019-03-17T08:43:02.013Z,6.90
2019-03-17T08:45:30.819Z,6.90
2019-03-17T08:48:00.982Z,6.90
2019-03-17T08:50:29.712Z,7.00
2019-03-17T08:52:58.457Z,7.10
2019-03-17T08:55:27.091Z,7.10
2019-03-17T08:58:06.297Z,7.20
2019-03-17T09:00:34.939Z,7.20
2019-03-17T09:03:05.016Z,7.20
2019-03-17T09:05:35.417Z,7.40
2019-03-17T09:08:05.722Z,7.30
2019-03-17T09:10:37.461Z,7.40
2019-03-17T09:13:06.129Z,7.40
2019-03-17T09:15:34.650Z,7.40
2019-03-17T09:18:18.491Z,7.50
2019-03-17T09:20:47.177Z,7.60
2019-03-17T09:23:15.832Z,7.90
2019-03-17T09:25:47.275Z,7.90
2019-03-17T09:28:19.002Z,8.00
2019-03-17T09:30:49.177Z,8.00
2019-03-17T09:33:17.830Z,8.00
2019-03-17T09:35:46.458Z,8.20
2019-03-17T09:38:20.252Z,8.40
2019-03-17T09:40:48.525Z,8.20
2019-03-17T09:43:22.674Z,8.20
2019-03-17T09:45:51.208Z,8.50
2019-03-17T09:48:19.938Z,8.80
2019-03-17T09:50:48.433Z,8.80
2019-03-17T09:53:17.099Z,8.90
2019-03-17T09:55:45.863Z,8.70
2019-03-17T09:58:19.735Z,8.40
2019-03-17T10:00:48.259Z,8.50
2019-03-17T10:03:18.593Z,9.10
2019-03-17T10:05:49.808Z,9.00
2019-03-17T10:08:19.608Z,8.70
2019-03-17T10:10:53.478Z,8.60
2019-03-17T10:13:22.291Z,8.80
2019-03-17T10:15:53.468Z,8.60
2019-03-17T10:18:22.088Z,8.40
2019-03-17T10:20:53.825Z,8.20
2019-03-17T10:23:22.486Z,8.30
2019-03-17T10:25:51.009Z,8.50
2019-03-17T10:28:22.445Z,8.20
2019-03-17T10:30:51.071Z,7.90
2019-03-17T10:33:19.576Z,7.90
2019-03-17T10:35:49.712Z,8.30
2019-03-17T10:38:18.423Z,9.70
2019-03-17T10:40:51.178Z,10.60
2019-03-17T10:43:19.801Z,10.50
2019-03-17T10:45:49.879Z,11.60
2019-03-17T10:48:18.501Z,11.50
2019-03-17T10:50:50.155Z,10.40
2019-03-17T10:53:18.694Z,10.40
2019-03-17T10:55:47.454Z,11.30
2019-03-17T10:58:18.424Z,12.10
2019-03-17T11:00:50.505Z,12.20
2019-03-17T11:03:20.795Z,11.20
2019-03-17T11:05:49.484Z,11.30
2019-03-17T11:08:17.928Z,10.40
2019-03-17T11:10:50.255Z,9.20
2019-03-17T11:13:20.880Z,8.60
2019-03-17T11:15:49.469Z,8.70
2019-03-17T11:18:20.436Z,9.60
2019-03-17T11:20:49.824Z,11.40
2019-03-17T11:23:18.323Z,11.40
2019-03-17T11:25:48.482Z,12.20
2019-03-17T11:28:16.994Z,11.90
2019-03-17T11:30:48.604Z,11.20
2019-03-17T11:33:20.247Z,11.90
2019-03-17T11:35:51.221Z,12.40
2019-03-17T11:38:20.671Z,12.90
2019-03-17T11:40:49.493Z,11.90
2019-03-17T11:43:21.081Z,11.80
2019-03-17T11:45:49.693Z,11.30
2019-03-17T11:48:24.139Z,11.70
2019-03-17T11:50:52.655Z,10.90
2019-03-17T11:53:21.237Z,11.70
2019-03-17T11:55:49.867Z,11.30
2019-03-17T11:58:18.317Z,13.20
2019-03-17T12:00:46.889Z,13.20
2019-03-17T12:03:15.415Z,14.20
2019-03-17T12:05:43.895Z,12.50
2019-03-17T12:08:12.406Z,11.80
2019-03-17T12:10:41.025Z,11.20
2019-03-17T12:13:09.532Z,11.90
2019-03-17T12:15:37.969Z,10.80
2019-03-17T12:18:06.607Z,10.70
2019-03-17T12:20:35.049Z,10.90
2019-03-17T12:23:03.555Z,10.30
2019-03-17T12:25:32.180Z,9.90
2019-03-17T12:28:00.838Z,9.60
2019-03-17T12:30:32.357Z,9.90
2019-03-17T12:33:01.136Z,11.30
2019-03-17T12:35:29.929Z,11.20
2019-03-17T12:37:58.411Z,10.30
2019-03-17T12:40:26.959Z,11.10
2019-03-17T12:42:55.417Z,11.80
2019-03-17T12:45:23.998Z,11.90
2019-03-17T12:47:52.481Z,12.00
2019-03-17T12:50:23.142Z,12.20
2019-03-17T12:52:51.579Z,11.00
2019-03-17T12:55:20.128Z,10.70
2019-03-17T12:57:48.557Z,11.60
2019-03-17T13:00:21.488Z,12.50
2019-03-17T13:02:49.956Z,13.00
2019-03-17T13:05:18.468Z,11.90
2019-03-17T13:07:46.994Z,11.30
2019-03-17T13:10:19.587Z,10.70
2019-03-17T13:12:48.043Z,10.40
2019-03-17T13:15:16.684Z,10.30
2019-03-17T13:17:45.166Z,11.40
2019-03-17T13:20:14.952Z,12.20
2019-03-17T13:22:43.548Z,12.30
2019-03-17T13:25:12.762Z,12.10
2019-03-17T13:27:41.348Z,11.90
2019-03-17T13:30:12.131Z,12.00
2019-03-17T13:32:40.607Z,11.30
2019-03-17T13:35:09.895Z,12.50
2019-03-17T13:37:38.347Z,11.70
2019-03-17T13:40:12.760Z,11.70
2019-03-17T13:42:41.291Z,12.60
2019-03-17T13:45:11.990Z,12.20
2019-03-17T13:47:40.599Z,11.70
2019-03-17T13:50:16.881Z,11.10
2019-03-17T13:52:45.411Z,10.70
2019-03-17T13:55:13.855Z,10.50
2019-03-17T13:57:57.115Z,10.20
2019-03-17T14:00:25.565Z,10.30
2019-03-17T14:02:54.007Z,10.50
2019-03-17T14:05:22.586Z,10.90
2019-03-17T14:07:51.114Z,11.00
2019-03-17T14:10:19.724Z,11.00
2019-03-17T14:12:48.338Z,10.60
2019-03-17T14:15:16.847Z,10.40
2019-03-17T14:17:45.295Z,10.20
2019-03-17T14:20:16.297Z,9.90
2019-03-17T14:22:44.043Z,9.30
2019-03-17T14:25:24.207Z,7.80
2019-03-17T14:27:52.647Z,7.70
2019-03-17T14:30:21.155Z,8.50
2019-03-17T14:32:49.654Z,8.70
2019-03-17T14:35:21.502Z,8.70
2019-03-17T14:37:49.384Z,8.70
2019-03-17T14:40:17.901Z,8.60
2019-03-17T14:42:48.550Z,8.50
2019-03-17T14:45:17.879Z,8.50
2019-03-17T14:47:46.443Z,8.40
2019-03-17T14:50:22.686Z,8.50
2019-03-17T14:52:51.128Z,8.30
2019-03-17T14:55:19.639Z,8.30
2019-03-17T14:57:48.121Z,8.20
2019-03-17T15:00:20.540Z,8.30
2019-03-17T15:02:49.107Z,8.30
2019-03-17T15:05:17.770Z,8.30
2019-03-17T15:07:46.281Z,8.10
2019-03-17T15:10:20.189Z,7.80
2019-03-17T15:12:48.796Z,7.20
2019-03-17T15:15:18.280Z,7.00
2019-03-17T15:17:46.794Z,6.80
2019-03-17T15:20:25.763Z,6.50
2019-03-17T15:22:54.269Z,6.30
2019-03-17T15:25:22.855Z,5.90
2019-03-17T15:27:51.392Z,5.60
2019-03-17T15:30:29.806Z,5.80
2019-03-17T15:32:58.308Z,5.90
2019-03-17T15:35:26.807Z,5.90
2019-03-17T15:37:55.308Z,6.10
2019-03-17T15:40:23.866Z,6.20
2019-03-17T15:42:52.550Z,6.20
2019-03-17T15:45:24.065Z,6.30
2019-03-17T15:47:52.669Z,6.40
2019-03-17T15:50:23.316Z,6.20
2019-03-17T15:52:51.751Z,6.10
2019-03-17T15:55:20.350Z,5.90
2019-03-17T15:57:48.788Z,5.90
2019-03-17T16:00:24.813Z,6.00
2019-03-17T16:02:49.256Z,6.10
2019-03-17T16:05:19.204Z,6.10
2019-03-17T16:07:47.784Z,6.20
2019-03-17T16:10:29.589Z,8.40
2019-03-17T16:12:58.177Z,11.00
2019-03-17T16:15:26.752Z,9.20
2019-03-17T16:17:55.961Z,7.90
2019-03-17T16:20:26.493Z,7.80
2019-03-17T16:22:55.035Z,8.20
2019-03-17T16:25:28.490Z,7.50
2019-03-17T16:27:57.089Z,6.80
2019-03-17T16:30:30.504Z,6.60
2019-03-17T16:32:59.270Z,6.50
2019-03-17T16:35:27.783Z,6.50
2019-03-17T16:37:56.304Z,6.50
2019-03-17T16:40:26.328Z,6.90
2019-03-17T16:42:54.841Z,7.20
2019-03-17T16:45:23.518Z,7.10
2019-03-17T16:47:52.167Z,7.10
2019-03-17T16:50:24.206Z,7.10
2019-03-17T16:52:52.789Z,7.10
2019-03-17T16:55:23.046Z,7.10
2019-03-17T16:57:51.628Z,7.20
2019-03-17T17:00:22.102Z,7.20
2019-03-17T17:02:51.056Z,7.20
2019-03-17T17:05:22.669Z,7.20
2019-03-17T17:07:51.252Z,7.10
2019-03-17T17:10:27.034Z,7.10
2019-03-17T17:12:55.544Z,7.10
2019-03-17T17:15:28.503Z,7.20
2019-03-17T17:17:57.342Z,7.00
2019-03-17T17:20:33.647Z,7.00
2019-03-17T17:23:02.196Z,7.00
2019-03-17T17:25:30.699Z,6.90
2019-03-17T17:27:59.194Z,6.90
2019-03-17T17:30:27.691Z,6.80
2019-03-17T17:32:56.269Z,6.70
2019-03-17T17:35:24.779Z,6.70
2019-03-17T17:37:53.248Z,6.60
2019-03-17T17:40:25.253Z,6.60
2019-03-17T17:42:53.708Z,6.60
2019-03-17T17:45:23.147Z,6.60
2019-03-17T17:47:51.604Z,6.60
2019-03-17T17:50:27.571Z,6.60
2019-03-17T17:52:56.093Z,6.60
2019-03-17T17:55:25.618Z,6.70
2019-03-17T17:57:54.146Z,6.60
2019-03-17T18:00:24.301Z,6.70
2019-03-17T18:02:52.831Z,6.60
2019-03-17T18:05:21.429Z,6.60
2019-03-17T18:07:50.007Z,6.50
2019-03-17T18:10:18.879Z,6.50
2019-03-17T18:12:47.485Z,6.50
2019-03-17T18:15:23.672Z,6.50
2019-03-17T18:17:52.214Z,6.50
2019-03-17T18:20:20.660Z,6.50
2019-03-17T18:22:49.137Z,6.50
2019-03-17T18:25:21.261Z,6.60
2019-03-17T18:27:49.927Z,6.60
2019-03-17T18:30:19.583Z,6.60
2019-03-17T18:32:48.217Z,6.60
2019-03-17T18:35:16.889Z,6.70
2019-03-17T18:37:45.368Z,6.70
2019-03-17T18:40:15.997Z,6.70
2019-03-17T18:42:44.704Z,6.80
2019-03-17T18:45:15.878Z,6.70
2019-03-17T18:47:45.978Z,6.70
2019-03-17T18:50:20.113Z,6.90
2019-03-17T18:52:45.606Z,7.00
2019-03-17T18:55:15.160Z,7.10
2019-03-17T18:57:43.824Z,7.00
2019-03-17T19:00:15.273Z,7.00
2019-03-17T19:02:44.084Z,7.00
2019-03-17T19:05:14.073Z,7.00
2019-03-17T19:07:42.705Z,7.00
2019-03-17T19:10:13.150Z,7.10
2019-03-17T19:12:45.637Z,7.00
2019-03-17T19:15:21.849Z,7.00
2019-03-17T19:17:50.626Z,7.00
2019-03-17T19:20:20.006Z,7.00
2019-03-17T19:22:48.539Z,6.90
2019-03-17T19:25:19.162Z,7.00
2019-03-17T19:27:47.667Z,7.00
2019-03-17T19:30:22.649Z,7.10
2019-03-17T19:32:51.191Z,7.00
2019-03-17T19:35:19.773Z,7.00
2019-03-17T19:37:48.294Z,6.90
2019-03-17T19:40:18.932Z,6.80
2019-03-17T19:42:58.101Z,6.70
2019-03-17T19:45:17.645Z,6.60
2019-03-17T19:47:46.082Z,6.60
2019-03-17T19:50:22.115Z,6.50
2019-03-17T19:52:50.695Z,6.50
2019-03-17T19:55:19.132Z,6.50
2019-03-17T19:57:47.671Z,6.50
2019-03-17T20:00:20.077Z,6.50
2019-03-17T20:02:48.661Z,6.40
2019-03-17T20:05:17.281Z,6.40
2019-03-17T20:07:45.786Z,6.40
2019-03-17T20:10:19.978Z,6.40
2019-03-17T20:12:48.594Z,6.40
2019-03-17T20:15:17.193Z,6.30
2019-03-17T20:17:45.633Z,6.40
2019-03-17T20:20:15.036Z,6.30
2019-03-17T20:22:43.623Z,6.30
2019-03-17T20:25:12.236Z,6.30
2019-03-17T20:27:40.772Z,6.20
2019-03-17T20:30:19.061Z,6.20
2019-03-17T20:32:47.673Z,6.30
2019-03-17T20:35:16.274Z,6.20
2019-03-17T20:37:44.790Z,6.30
2019-03-17T20:40:18.031Z,6.30
2019-03-17T20:42:46.713Z,6.30
2019-03-17T20:45:16.349Z,6.30
2019-03-17T20:47:44.993Z,6.30
2019-03-17T20:50:17.351Z,6.20
2019-03-17T20:52:45.859Z,6.20
2019-03-17T20:55:14.478Z,6.10
2019-03-17T20:57:42.992Z,6.10
2019-03-17T21:00:18.068Z,6.00
2019-03-17T21:02:46.664Z,6.00
2019-03-17T21:05:15.305Z,6.00
2019-03-17T21:07:43.879Z,6.00
2019-03-17T21:10:13.517Z,6.00
2019-03-17T21:12:42.090Z,6.00
2019-03-17T21:15:13.727Z,6.00
2019-03-17T21:17:42.175Z,6.00
2019-03-17T21:20:21.823Z,5.90
2019-03-17T21:22:50.293Z,5.90
2019-03-17T21:25:18.736Z,5.90
2019-03-17T21:27:47.263Z,5.90
2019-03-17T21:30:30.351Z,5.90
2019-03-17T21:32:58.798Z,5.90
2019-03-17T21:35:27.316Z,6.00
2019-03-17T21:37:55.848Z,6.00
2019-03-17T21:40:24.287Z,6.00
2019-03-17T21:42:52.726Z,5.90
2019-03-17T21:45:21.270Z,5.90
2019-03-17T21:47:49.799Z,6.00
2019-03-17T21:50:19.175Z,6.00
2019-03-17T21:52:47.878Z,6.00
2019-03-17T21:55:16.386Z,5.90
2019-03-17T21:57:44.960Z,5.90
2019-03-17T22:00:18.451Z,6.00
2019-03-17T22:02:47.025Z,5.90
2019-03-17T22:05:15.902Z,5.90
2019-03-17T22:07:50.055Z,5.90
2019-03-17T22:10:16.964Z,5.90
2019-03-17T22:12:45.608Z,5.90
2019-03-17T22:15:18.162Z,5.90
2019-03-17T22:17:46.667Z,5.90
2019-03-17T22:20:15.759Z,5.90
2019-03-17T22:22:44.459Z,5.90
2019-03-17T22:25:13.940Z,5.80
2019-03-17T22:27:42.451Z,5.80
2019-03-17T22:30:19.135Z,5.80
2019-03-17T22:32:47.638Z,5.80
2019-03-17T22:35:16.218Z,5.90
2019-03-17T22:37:44.816Z,5.90
2019-03-17T22:40:17.128Z,5.90
2019-03-17T22:42:45.716Z,5.80
2019-03-17T22:45:15.464Z,5.80
2019-03-17T22:47:44.107Z,5.80
2019-03-17T22:50:14.880Z,5.80
2019-03-17T22:52:43.458Z,5.80
2019-03-17T22:55:12.186Z,5.70
2019-03-17T22:57:40.692Z,5.70
2019-03-17T23:00:36.023Z,5.70
2019-03-17T23:03:05.160Z,5.70
2019-03-17T23:05:33.963Z,5.70
2019-03-17T23:08:02.506Z,5.70
2019-03-17T23:10:30.942Z,5.70
2019-03-17T23:12:59.387Z,5.70
2019-03-17T23:15:27.927Z,5.80
2019-03-17T23:17:56.599Z,5.70
2019-03-17T23:20:25.063Z,5.70
2019-03-17T23:22:53.625Z,5.80
2019-03-17T23:25:22.235Z,5.70
2019-03-17T23:27:50.744Z,5.80
2019-03-17T23:30:20.253Z,5.80
2019-03-17T23:32:49.358Z,5.70
2019-03-17T23:35:18.183Z,5.80
2019-03-17T23:37:46.793Z,5.70
2019-03-17T23:40:18.690Z,5.70
2019-03-17T23:42:47.142Z,5.70
2019-03-17T23:45:15.893Z,5.60
2019-03-17T23:47:44.319Z,5.60
2019-03-17T23:50:16.282Z,5.60
2019-03-17T23:52:44.810Z,5.60
2019-03-17T23:55:14.086Z,5.60
2019-03-17T23:57:42.710Z,5.50
